Time;durP1;ratioP1;P1;durP2;ratioP2;P2;SDS_P1;SDS_P2;PMS_P1;PMS_P2;Temp;Humidity;BMP_temperature;BMP_pressure;BME280_temperature;BME280_humidity;BME280_pressure;Samples;Min_cycle;Max_cycle;Signal;HPM_P1;HPM_P2
2022/01/10 00:00:34;;;;;;;19.25;4.45;;;6.70;99.90;;;;;;5069727;28;20334;-72
2022/01/10 00:03:00;;;;;;;17.75;4.38;;;6.70;99.90;;;;;;5070031;28;20078;-73
2022/01/10 00:05:26;;;;;;;18.52;4.47;;;6.60;99.90;;;;;;5070793;28;20458;-73
2022/01/10 00:07:51;;;;;;;19.35;5.20;;;6.70;99.90;;;;;;5070967;28;20071;-72
2022/01/10 00:10:18;;;;;;;16.17;5.03;;;6.60;99.90;;;;;;5069961;28;20032;-73
2022/01/10 00:12:44;;;;;;;17.05;4.88;;;6.70;99.90;;;;;;5070232;28;20112;-72
2022/01/10 00:15:11;;;;;;;19.10;5.10;;;6.70;99.90;;;;;;5070255;28;20455;-73
2022/01/10 00:17:38;;;;;;;14.27;4.22;;;6.60;99.90;;;;;;5070364;28;20450;-73
2022/01/10 00:20:12;;;;;;;12.18;4.30;;;6.80;99.90;;;;;;5069933;28;20040;-72
2022/01/10 00:22:40;;;;;;;21.42;4.40;;;6.80;99.90;;;;;;5050666;28;20511;-72
2022/01/10 00:25:06;;;;;;;17.90;4.95;;;6.60;99.90;;;;;;5049772;28;20113;-72
2022/01/10 00:27:32;;;;;;;20.48;4.65;;;6.70;99.90;;;;;;5049392;28;20086;-72
2022/01/10 00:29:57;;;;;;;17.83;4.65;;;6.60;99.90;;;;;;5051219;28;20025;-73
2022/01/10 00:32:23;;;;;;;14.25;4.22;;;6.70;99.90;;;;;;5070237;28;20067;-72
2022/01/10 00:34:50;;;;;;;21.13;5.05;;;6.70;99.90;;;;;;5070434;28;20033;-73
2022/01/10 00:37:15;;;;;;;15.68;4.18;;;6.70;99.90;;;;;;5069652;28;20375;-73
2022/01/10 00:39:41;;;;;;;16.35;5.13;;;6.70;99.90;;;;;;5069582;28;20103;-73
2022/01/10 00:42:07;;;;;;;17.27;4.40;;;6.80;99.90;;;;;;5069413;28;20040;-73
2022/01/10 00:44:38;;;;;;;26.35;4.93;;;6.80;99.90;;;;;;5069531;28;20037;-73
2022/01/10 00:47:03;;;;;;;19.95;4.35;;;6.80;99.90;;;;;;5069332;28;20044;-73
2022/01/10 00:49:29;;;;;;;15.82;3.85;;;6.70;99.90;;;;;;5070668;28;20117;-72
2022/01/10 00:51:55;;;;;;;17.27;4.57;;;6.50;99.90;;;;;;5070618;28;20063;-73
2022/01/10 00:54:20;;;;;;;17.15;3.70;;;6.60;99.90;;;;;;5070401;28;20033;-72
2022/01/10 00:56:46;;;;;;;19.48;4.82;;;6.70;99.90;;;;;;5069352;28;20025;-73
2022/01/10 00:59:11;;;;;;;19.13;4.75;;;6.70;99.90;;;;;;5070497;28;20028;-72
2022/01/10 01:01:37;;;;;;;15.65;3.58;;;6.60;99.90;;;;;;5070217;28;20469;-73
2022/01/10 01:04:03;;;;;;;10.13;4.13;;;6.70;99.90;;;;;;5068340;28;20055;-72
2022/01/10 01:06:28;;;;;;;15.48;3.95;;;6.60;99.90;;;;;;5070253;28;20025;-72
2022/01/10 01:09:02;;;;;;;11.98;3.67;;;6.70;99.90;;;;;;5069945;28;20120;-74
2022/01/10 01:14:00;;;;;;;13.25;4.30;;;6.60;99.90;;;;;;5069260;28;20031;-73
2022/01/10 01:16:42;;;;;;;11.88;3.63;;;6.60;99.90;;;;;;5068399;28;20043;-73
2022/01/10 01:24:29;;;;;;;15.90;4.43;;;6.70;99.90;;;;;;5069634;28;20572;-74
2022/01/10 01:26:55;;;;;;;13.13;3.95;;;6.60;99.90;;;;;;5069624;28;20036;-72
2022/01/10 01:29:24;;;;;;;19.05;4.10;;;6.60;99.90;;;;;;5069907;28;20039;-73
2022/01/10 01:31:50;;;;;;;16.00;3.92;;;6.70;99.90;;;;;;5067719;28;20029;-72
2022/01/10 01:34:16;;;;;;;11.73;3.97;;;6.60;99.90;;;;;;5069979;28;20085;-72
2022/01/10 01:36:47;;;;;;;15.35;4.38;;;6.60;99.90;;;;;;5069919;28;20029;-72
2022/01/10 01:39:21;;;;;;;12.05;3.58;;;6.60;99.90;;;;;;5069522;28;20028;-72
2022/01/10 01:41:49;;;;;;;19.58;4.60;;;6.60;99.90;;;;;;5069240;28;20045;-72
2022/01/10 01:44:15;;;;;;;12.40;4.45;;;6.60;99.90;;;;;;5050168;28;20037;-71
2022/01/10 01:46:42;;;;;;;15.35;3.97;;;6.60;99.90;;;;;;5050318;28;20037;-72
2022/01/10 01:49:08;;;;;;;20.17;4.22;;;6.70;99.90;;;;;;5073095;28;20515;-72
2022/01/10 01:51:34;;;;;;;14.20;4.80;;;6.70;99.90;;;;;;5073549;28;20038;-72
2022/01/10 01:54:00;;;;;;;11.90;4.28;;;6.70;99.90;;;;;;5073890;28;20028;-74
2022/01/10 01:56:25;;;;;;;25.65;4.60;;;6.70;99.90;;;;;;5073083;28;20037;-72
2022/01/10 01:58:53;;;;;;;19.02;4.80;;;6.90;99.90;;;;;;5073345;28;20607;-73
2022/01/10 02:01:20;;;;;;;19.70;4.55;;;6.80;99.90;;;;;;5073521;28;20029;-73
2022/01/10 02:03:47;;;;;;;19.75;4.03;;;6.80;99.90;;;;;;5071877;28;20419;-73
2022/01/10 02:06:17;;;;;;;20.77;4.22;;;6.70;99.90;;;;;;5073198;28;20029;-73
2022/01/10 02:08:43;;;;;;;18.20;4.68;;;6.50;99.90;;;;;;5071726;28;20051;-73
2022/01/10 02:11:12;;;;;;;21.55;4.53;;;6.60;99.90;;;;;;5073274;28;20032;-73
2022/01/10 02:13:39;;;;;;;24.20;4.95;;;6.60;99.90;;;;;;5071863;28;20032;-73
2022/01/10 02:16:05;;;;;;;16.57;4.60;;;6.60;99.90;;;;;;5072029;28;20029;-73
2022/01/10 02:18:32;;;;;;;19.42;4.82;;;6.60;99.90;;;;;;5071376;28;20024;-72
2022/01/10 02:21:04;;;;;;;30.30;4.93;;;6.50;99.90;;;;;;5073483;28;20031;-73
2022/01/10 02:23:31;;;;;;;19.75;4.97;;;6.60;99.90;;;;;;5072974;28;20116;-73
2022/01/10 02:25:58;;;;;;;18.75;4.25;;;6.60;99.90;;;;;;5072882;28;20121;-72
2022/01/10 02:28:24;;;;;;;17.67;4.90;;;6.60;99.90;;;;;;5071331;28;20127;-73
2022/01/10 02:30:55;;;;;;;17.50;4.90;;;6.60;99.90;;;;;;5072863;28;20025;-73
2022/01/10 02:33:22;;;;;;;17.73;4.53;;;6.60;99.90;;;;;;5072265;28;20456;-74
2022/01/10 02:36:33;;;;;;;16.95;4.95;;;6.50;99.90;;;;;;5064144;28;20029;-72
2022/01/10 02:38:34;;;;;;;15.25;5.20;;;6.40;99.90;;;;;;5068094;28;20082;-72
2022/01/10 02:41:00;;;;;;;16.63;4.95;;;6.40;99.90;;;;;;5072010;28;20063;-72
2022/01/10 02:43:26;;;;;;;19.25;4.78;;;6.40;99.90;;;;;;5072537;28;20071;-73
2022/01/10 02:45:53;;;;;;;25.65;5.20;;;6.40;99.90;;;;;;5071353;28;20071;-72
2022/01/10 02:48:19;;;;;;;16.42;4.55;;;6.40;99.90;;;;;;5071867;28;20088;-73
2022/01/10 02:50:45;;;;;;;16.52;5.57;;;6.40;99.90;;;;;;5071775;28;20120;-72
2022/01/10 02:53:10;;;;;;;29.65;5.68;;;6.40;99.90;;;;;;5072551;28;20020;-72
2022/01/10 02:55:36;;;;;;;24.85;5.80;;;6.40;99.90;;;;;;5072223;28;20043;-72
2022/01/10 02:58:02;;;;;;;24.83;5.90;;;6.30;99.90;;;;;;5072445;28;20021;-72
2022/01/10 03:00:27;;;;;;;23.20;5.88;;;6.50;99.90;;;;;;5070386;28;20029;-72
2022/01/10 03:02:55;;;;;;;21.38;5.07;;;6.40;99.90;;;;;;5072360;28;20048;-74
2022/01/10 03:05:22;;;;;;;16.70;5.07;;;6.40;99.90;;;;;;5072095;28;20433;-73
2022/01/10 03:07:52;;;;;;;15.50;5.20;;;6.40;99.90;;;;;;5070903;28;20047;-73
2022/01/10 03:10:18;;;;;;;16.73;5.25;;;6.50;99.90;;;;;;5071049;28;20066;-73
2022/01/10 03:12:43;;;;;;;24.25;5.93;;;6.50;99.90;;;;;;5072019;28;20458;-73
2022/01/10 03:15:10;;;;;;;18.90;5.38;;;6.50;99.90;;;;;;5072327;28;20032;-73
2022/01/10 03:17:37;;;;;;;15.95;5.43;;;6.60;99.90;;;;;;5072072;28;20037;-73
2022/01/10 03:20:05;;;;;;;24.20;6.05;;;6.40;99.90;;;;;;5070519;28;20365;-73
2022/01/10 03:22:31;;;;;;;22.70;6.25;;;6.40;99.90;;;;;;5071612;28;20036;-73
2022/01/10 03:24:58;;;;;;;20.50;5.80;;;6.50;99.90;;;;;;5071592;28;20042;-72
2022/01/10 03:27:24;;;;;;;16.88;6.28;;;6.50;99.90;;;;;;5071037;28;20412;-73
2022/01/10 03:29:52;;;;;;;15.05;5.00;;;6.50;99.90;;;;;;5070934;28;20037;-73
2022/01/10 03:32:18;;;;;;;17.65;5.53;;;6.50;99.90;;;;;;5070353;28;20055;-73
2022/01/10 03:34:44;;;;;;;13.25;5.80;;;6.50;99.90;;;;;;5071834;28;20361;-73
2022/01/10 03:37:10;;;;;;;14.15;5.13;;;6.50;99.90;;;;;;5071210;28;20107;-73
2022/01/10 03:39:35;;;;;;;25.63;6.43;;;6.60;99.90;;;;;;5070934;28;20104;-73
2022/01/10 03:42:02;;;;;;;20.50;6.07;;;6.60;99.90;;;;;;5069785;28;20028;-73
2022/01/10 03:44:28;;;;;;;18.48;6.03;;;6.70;99.90;;;;;;5071263;28;20071;-72
2022/01/10 03:46:53;;;;;;;24.17;5.55;;;6.80;99.90;;;;;;5071121;28;20060;-73
2022/01/10 03:49:19;;;;;;;24.52;6.03;;;6.70;99.90;;;;;;5071123;28;20458;-73
2022/01/10 03:51:45;;;;;;;24.60;6.22;;;6.70;99.90;;;;;;5070574;28;20032;-73
2022/01/10 03:54:10;;;;;;;28.00;6.53;;;6.70;99.90;;;;;;5071491;28;20024;-74
2022/01/10 03:56:36;;;;;;;19.60;6.22;;;6.70;99.90;;;;;;5071147;28;20060;-74
2022/01/10 03:59:03;;;;;;;18.17;6.70;;;6.70;99.90;;;;;;5070976;28;20036;-73
2022/01/10 04:01:30;;;;;;;16.60;5.25;;;6.80;99.90;;;;;;5070706;28;20388;-74
2022/01/10 04:03:56;;;;;;;21.70;5.57;;;6.80;99.90;;;;;;5070654;28;20037;-74
2022/01/10 04:06:22;;;;;;;18.13;4.95;;;6.90;99.90;;;;;;5071202;28;20107;-73
2022/01/10 04:08:48;;;;;;;17.98;5.35;;;6.90;99.90;;;;;;5069301;28;20170;-73
2022/01/10 04:11:14;;;;;;;20.38;5.53;;;6.90;99.90;;;;;;5070804;28;20051;-72
2022/01/10 04:13:40;;;;;;;20.88;5.28;;;7.00;99.90;;;;;;5070056;28;20378;-75
2022/01/10 04:16:06;;;;;;;20.73;5.13;;;6.90;99.90;;;;;;5069765;28;20033;-73
2022/01/10 04:18:32;;;;;;;20.48;5.72;;;6.80;99.90;;;;;;5069127;28;20097;-74
2022/01/10 04:20:58;;;;;;;14.40;5.00;;;6.90;99.90;;;;;;5070006;28;20442;-75
2022/01/10 04:23:25;;;;;;;19.55;5.30;;;6.90;99.90;;;;;;5068781;28;20066;-73
2022/01/10 04:25:50;;;;;;;25.85;5.45;;;6.90;99.90;;;;;;5070468;28;20470;-73
2022/01/10 04:28:16;;;;;;;21.95;5.55;;;6.90;99.90;;;;;;5070598;28;20189;-73
2022/01/10 04:30:42;;;;;;;23.20;5.68;;;7.00;99.90;;;;;;5070598;28;20028;-75
2022/01/10 04:33:09;;;;;;;22.85;6.10;;;7.00;99.90;;;;;;5070509;28;20032;-72
2022/01/10 04:35:35;;;;;;;17.90;5.50;;;6.90;99.90;;;;;;5070645;28;20029;-73
2022/01/10 04:38:01;;;;;;;22.00;5.82;;;6.80;99.90;;;;;;5069305;28;20039;-75
2022/01/10 04:40:27;;;;;;;24.58;5.57;;;6.80;99.90;;;;;;5069339;28;20064;-74
2022/01/10 04:42:53;;;;;;;23.67;5.75;;;6.80;99.90;;;;;;5069187;28;20082;-73
2022/01/10 04:45:18;;;;;;;14.50;5.60;;;6.80;99.90;;;;;;5069993;28;20501;-74
2022/01/10 04:47:44;;;;;;;16.52;5.43;;;6.90;99.90;;;;;;5070395;28;20116;-74
2022/01/10 04:52:36;;;;;;;16.98;5.60;;;6.90;99.90;;;;;;5070291;28;20112;-74
2022/01/10 04:55:02;;;;;;;22.27;5.70;;;6.90;99.90;;;;;;5068875;28;20120;-75
2022/01/10 04:57:28;;;;;;;15.38;6.38;;;7.00;99.90;;;;;;5070637;28;20020;-74
2022/01/10 04:59:53;;;;;;;24.40;7.07;;;6.90;99.90;;;;;;5069832;28;20078;-73
2022/01/10 05:02:19;;;;;;;21.58;6.43;;;7.00;99.90;;;;;;5069339;28;20052;-74
2022/01/10 05:04:45;;;;;;;21.17;6.22;;;7.00;99.90;;;;;;5070290;28;20431;-74
2022/01/10 05:07:11;;;;;;;28.10;5.90;;;7.00;99.90;;;;;;5070255;28;20111;-74
2022/01/10 05:09:36;;;;;;;19.60;5.60;;;6.90;99.90;;;;;;5069975;28;20032;-74
2022/01/10 05:12:02;;;;;;;20.10;6.22;;;6.90;99.90;;;;;;5068904;28;20025;-74
2022/01/10 05:14:28;;;;;;;16.35;6.20;;;7.00;99.90;;;;;;5069136;28;20688;-75
2022/01/10 05:16:54;;;;;;;20.00;5.65;;;7.00;99.90;;;;;;5070270;28;20347;-74
2022/01/10 05:19:19;;;;;;;17.67;6.00;;;6.90;99.90;;;;;;5069711;28;20029;-73
2022/01/10 05:21:45;;;;;;;20.65;6.43;;;6.90;99.90;;;;;;5067752;28;20037;-73
2022/01/10 05:24:11;;;;;;;20.15;5.82;;;6.90;99.90;;;;;;5073901;28;20039;-73
2022/01/10 05:26:37;;;;;;;16.88;5.70;;;6.90;99.90;;;;;;5073911;28;20670;-73
2022/01/10 05:29:03;;;;;;;24.60;6.63;;;6.90;99.90;;;;;;5073807;28;20189;-73
2022/01/10 05:31:33;;;;;;;16.42;6.15;;;6.80;99.90;;;;;;5073393;28;20028;-74
2022/01/10 05:33:59;;;;;;;28.40;7.95;;;6.70;99.90;;;;;;5073964;28;20044;-74
2022/01/10 05:36:25;;;;;;;21.27;6.85;;;6.80;99.90;;;;;;5073205;28;20029;-74
2022/01/10 05:38:51;;;;;;;20.95;6.28;;;6.90;99.90;;;;;;5073332;28;20040;-73
2022/01/10 05:41:16;;;;;;;25.75;6.85;;;6.90;99.90;;;;;;5073721;28;20579;-73
2022/01/10 05:43:43;;;;;;;19.33;6.32;;;6.80;99.90;;;;;;5072785;28;20124;-74
2022/01/10 05:46:11;;;;;;;24.70;7.20;;;6.80;99.90;;;;;;5073138;28;20358;-73
2022/01/10 05:48:39;;;;;;;18.70;6.70;;;6.80;99.90;;;;;;5073549;28;20486;-74
2022/01/10 05:51:05;;;;;;;18.52;6.97;;;6.80;99.90;;;;;;5072962;28;20031;-74
2022/01/10 05:53:31;;;;;;;22.58;6.00;;;6.80;99.90;;;;;;5073579;28;20052;-73
2022/01/10 05:55:57;;;;;;;28.08;7.00;;;6.80;99.90;;;;;;5072019;28;20067;-73
2022/01/10 05:58:22;;;;;;;17.00;6.95;;;6.90;99.90;;;;;;5072090;28;20056;-73
2022/01/10 06:00:48;;;;;;;22.17;7.10;;;6.90;99.90;;;;;;5072684;28;20029;-73
2022/01/10 06:03:14;;;;;;;31.15;8.82;;;7.00;99.90;;;;;;5072208;28;20425;-75
2022/01/10 06:05:40;;;;;;;20.17;6.68;;;6.90;99.90;;;;;;5071767;28;20481;-73
2022/01/10 06:08:08;;;;;;;32.28;7.35;;;6.90;99.90;;;;;;5073057;28;20112;-72
2022/01/10 06:10:33;;;;;;;18.58;7.40;;;6.90;99.90;;;;;;5072132;28;20407;-74
2022/01/10 06:12:59;;;;;;;27.13;7.50;;;6.90;99.90;;;;;;5071435;28;20048;-74
2022/01/10 06:15:25;;;;;;;28.88;8.07;;;6.90;99.90;;;;;;5071562;28;20070;-75
2022/01/10 06:17:51;;;;;;;20.73;7.30;;;6.80;99.90;;;;;;5053256;28;20479;-75
2022/01/10 06:20:17;;;;;;;24.40;8.23;;;6.80;99.90;;;;;;5052052;28;20152;-75
2022/01/10 06:22:43;;;;;;;22.83;7.57;;;6.80;99.90;;;;;;5069318;28;20684;-74
2022/01/10 06:25:11;;;;;;;29.63;8.60;;;6.80;99.90;;;;;;5071932;28;20124;-73
2022/01/10 06:27:37;;;;;;;;;;;6.90;99.90;;;;;;5072523;28;20036;-73
2022/01/10 06:30:04;;;;;;;26.52;7.65;;;6.90;99.90;;;;;;5073159;28;19965;-75
2022/01/10 06:32:30;;;;;;;26.60;7.85;;;7.00;99.90;;;;;;5072762;28;20100;-73
2022/01/10 06:34:57;;;;;;;31.33;7.10;;;7.00;99.90;;;;;;5072700;28;20391;-73
2022/01/10 06:37:23;;;;;;;28.42;8.10;;;7.00;99.90;;;;;;5071602;28;20462;-73
2022/01/10 06:39:49;;;;;;;19.85;7.28;;;7.00;99.90;;;;;;5072762;28;20056;-73
2022/01/10 06:42:14;;;;;;;23.48;7.90;;;7.00;99.90;;;;;;5071200;28;20107;-74
2022/01/10 06:44:40;;;;;;;23.13;7.68;;;7.10;99.90;;;;;;5052784;28;20188;-75
2022/01/10 06:47:06;;;;;;;32.38;8.40;;;7.10;99.90;;;;;;5065251;28;20267;-72
2022/01/10 06:49:32;;;;;;;28.63;7.50;;;7.00;99.90;;;;;;5071926;28;20047;-73
2022/01/10 06:51:58;;;;;;;22.80;8.30;;;7.00;99.90;;;;;;5072495;28;20036;-74
2022/01/10 06:54:24;;;;;;;22.58;7.93;;;6.90;99.90;;;;;;5072030;28;20035;-73
2022/01/10 06:56:50;;;;;;;34.15;8.50;;;6.90;99.90;;;;;;5072446;28;20037;-73
2022/01/10 06:59:15;;;;;;;23.00;7.10;;;6.90;99.90;;;;;;5071571;28;20033;-72
2022/01/10 07:01:41;;;;;;;22.38;7.22;;;7.10;99.90;;;;;;5071088;28;20033;-72
2022/01/10 07:04:06;;;;;;;29.30;9.90;;;7.00;99.90;;;;;;5072317;28;20044;-74
2022/01/10 07:06:32;;;;;;;25.13;8.85;;;7.00;99.90;;;;;;5071410;28;20024;-74
2022/01/10 07:08:58;;;;;;;32.47;7.90;;;7.00;99.90;;;;;;5071919;28;20024;-73
2022/01/10 07:11:23;;;;;;;21.00;7.00;;;7.00;99.90;;;;;;5071552;28;20122;-75
2022/01/10 07:13:49;;;;;;;22.00;7.65;;;6.90;99.90;;;;;;5070617;28;20036;-72
2022/01/10 07:16:15;;;;;;;38.03;9.10;;;7.00;99.90;;;;;;5070778;28;20398;-70
2022/01/10 07:18:41;;;;;;;29.75;8.60;;;7.00;99.90;;;;;;5071690;28;20032;-69
2022/01/10 07:21:07;;;;;;;22.08;7.43;;;7.00;99.90;;;;;;5072023;28;20100;-76
2022/01/10 07:23:32;;;;;;;29.85;8.30;;;6.90;99.90;;;;;;5059112;28;20474;-75
2022/01/10 07:25:58;;;;;;;26.40;7.88;;;6.90;99.90;;;;;;5054793;28;20036;-75
2022/01/10 07:28:24;;;;;;;21.75;8.15;;;7.00;99.90;;;;;;5069535;28;20511;-77
2022/01/10 07:30:50;;;;;;;31.42;8.73;;;6.90;99.90;;;;;;5070624;28;20421;-75
2022/01/10 07:33:16;;;;;;;21.00;7.63;;;6.90;99.90;;;;;;5069327;28;20247;-77
2022/01/10 07:35:41;;;;;;;28.52;8.50;;;6.90;99.90;;;;;;5070395;28;20090;-77
2022/01/10 07:38:07;;;;;;;34.78;8.15;;;6.90;99.90;;;;;;5070384;28;20413;-74
2022/01/10 07:40:33;;;;;;;27.13;7.43;;;7.00;99.90;;;;;;5070113;28;20523;-73
2022/01/10 07:42:58;;;;;;;35.55;8.45;;;7.00;99.90;;;;;;5071184;28;20063;-73
2022/01/10 07:45:24;;;;;;;24.40;7.35;;;7.00;99.90;;;;;;5071185;28;20326;-73
2022/01/10 07:47:50;;;;;;;31.95;8.73;;;6.90;99.90;;;;;;5071196;28;20031;-76
2022/01/10 07:50:16;;;;;;;22.70;8.05;;;6.90;99.90;;;;;;5070598;28;20025;-76
2022/01/10 07:52:42;;;;;;;21.88;7.07;;;7.00;99.90;;;;;;5070693;28;20050;-75
2022/01/10 07:55:08;;;;;;;33.30;8.23;;;7.00;99.90;;;;;;5070351;28;20044;-74
2022/01/10 07:57:34;;;;;;;24.98;8.15;;;7.00;99.90;;;;;;5070554;28;20446;-70
2022/01/10 07:59:59;;;;;;;26.10;8.23;;;7.10;99.90;;;;;;5070279;28;20025;-73
2022/01/10 08:02:26;;;;;;;32.05;8.90;;;7.00;99.90;;;;;;5070702;28;20614;-74
2022/01/10 08:04:52;;;;;;;23.05;8.15;;;7.10;99.90;;;;;;5068843;28;20297;-73
2022/01/10 08:07:18;;;;;;;26.00;8.85;;;7.10;99.90;;;;;;5071067;28;20061;-73
2022/01/10 08:09:43;;;;;;;36.15;9.68;;;7.20;99.90;;;;;;5070729;28;20020;-73
2022/01/10 08:12:09;;;;;;;32.45;9.40;;;7.20;99.90;;;;;;5071226;28;20035;-72
2022/01/10 08:14:36;;;;;;;25.05;9.02;;;7.20;99.90;;;;;;5069353;28;20119;-73
2022/01/10 08:17:02;;;;;;;25.08;9.18;;;7.30;99.90;;;;;;5070118;28;20036;-73
2022/01/10 08:19:30;;;;;;;27.02;8.13;;;7.40;99.90;;;;;;5067777;28;20028;-74
2022/01/10 08:21:56;;;;;;;22.90;8.07;;;7.40;99.90;;;;;;5070691;28;20457;-71
2022/01/10 08:24:23;;;;;;;27.05;8.65;;;7.40;99.90;;;;;;5051486;28;20068;-70
2022/01/10 08:26:50;;;;;;;28.63;8.05;;;7.30;99.90;;;;;;5051422;28;20091;-74
2022/01/10 08:29:16;;;;;;;23.80;7.88;;;7.40;99.90;;;;;;5059999;28;20366;-74
2022/01/10 08:31:42;;;;;;;30.77;8.60;;;7.30;99.90;;;;;;5072037;28;20036;-73
2022/01/10 08:34:07;;;;;;;32.63;8.38;;;7.40;99.90;;;;;;5071235;28;20093;-71
2022/01/10 08:36:34;;;;;;;24.35;8.05;;;7.30;99.90;;;;;;5069787;28;20054;-73
2022/01/10 08:39:02;;;;;;;30.80;9.63;;;7.40;99.90;;;;;;5071753;28;20103;-73
2022/01/10 08:41:27;;;;;;;28.10;8.63;;;7.30;99.90;;;;;;5070249;28;20529;-78
2022/01/10 08:43:53;;;;;;;27.67;9.15;;;7.40;99.90;;;;;;5070656;28;20040;-76
2022/01/10 08:46:19;;;;;;;25.23;8.27;;;7.50;99.90;;;;;;5069207;28;20114;-77
2022/01/10 08:48:44;;;;;;;29.20;8.15;;;7.60;99.90;;;;;;5070630;28;20021;-78
2022/01/10 08:51:10;;;;;;;23.55;8.45;;;7.60;99.90;;;;;;5072451;28;20025;-77
2022/01/10 08:53:36;;;;;;;34.70;10.00;;;7.50;99.90;;;;;;5071926;28;20117;-78
2022/01/10 08:56:02;;;;;;;32.53;9.65;;;7.70;99.90;;;;;;5071796;28;20032;-77
2022/01/10 08:58:32;;;;;;;31.73;8.50;;;7.80;99.80;;;;;;5074646;28;20040;-77
2022/01/10 09:01:05;;;;;;;26.35;8.63;;;7.70;99.90;;;;;;5074395;28;20039;-74
2022/01/10 09:03:32;;;;;;;28.02;9.90;;;7.80;99.70;;;;;;5073301;28;20110;-80
2022/01/10 09:05:58;;;;;;;32.15;8.60;;;7.80;99.70;;;;;;5073625;28;20123;-73
2022/01/10 09:08:36;;;;;;;27.15;9.48;;;7.80;99.80;;;;;;5072090;28;20469;-74
2022/01/10 09:11:02;;;;;;;23.33;8.52;;;7.90;99.70;;;;;;5075741;28;20037;-77
2022/01/10 09:13:29;;;;;;;31.10;9.25;;;7.60;99.50;;;;;;5073776;28;20052;-76
2022/01/10 09:15:54;;;;;;;29.70;8.15;;;7.80;99.70;;;;;;5074905;28;20458;-76
2022/01/10 09:18:20;;;;;;;25.60;8.15;;;7.90;99.50;;;;;;5074776;28;20039;-73
2022/01/10 09:20:46;;;;;;;27.05;9.63;;;7.80;99.70;;;;;;5074494;28;20032;-75
2022/01/10 09:23:12;;;;;;;26.20;8.45;;;7.90;99.70;;;;;;5073363;28;20471;-73
2022/01/10 09:25:38;;;;;;;29.08;9.13;;;7.90;99.60;;;;;;5072802;28;20036;-74
2022/01/10 09:28:04;;;;;;;26.15;9.07;;;8.00;99.50;;;;;;5074177;28;20180;-73
2022/01/10 09:30:30;;;;;;;35.58;11.13;;;8.20;99.40;;;;;;5072900;28;20458;-75
2022/01/10 09:32:56;;;;;;;25.67;7.43;;;8.10;99.00;;;;;;5073768;28;20040;-73
2022/01/10 09:35:23;;;;;;;27.08;7.63;;;8.30;99.10;;;;;;5073951;28;20036;-77
2022/01/10 09:37:49;;;;;;;25.98;8.25;;;8.40;99.30;;;;;;5071607;28;20170;-75
2022/01/10 09:40:15;;;;;;;34.33;9.27;;;8.30;98.80;;;;;;5073591;28;20033;-75
2022/01/10 09:42:42;;;;;;;20.80;8.10;;;8.30;98.90;;;;;;5073168;28;20028;-76
2022/01/10 09:45:08;;;;;;;27.42;9.25;;;8.20;99.00;;;;;;5073186;28;20473;-75
2022/01/10 09:47:35;;;;;;;26.40;11.05;;;8.20;98.60;;;;;;5072967;28;20041;-74
2022/01/10 09:50:01;;;;;;;38.05;12.95;;;8.10;98.80;;;;;;5071718;28;20031;-75
2022/01/10 09:52:28;;;;;;;45.05;15.88;;;8.10;98.90;;;;;;5073280;28;20506;-75
2022/01/10 09:54:54;;;;;;;28.48;8.93;;;8.00;99.00;;;;;;5073163;28;20029;-74
2022/01/10 09:57:20;;;;;;;21.55;8.27;;;8.20;99.00;;;;;;5074843;28;20523;-78
2022/01/10 09:59:47;;;;;;;28.38;9.07;;;8.10;98.90;;;;;;5072420;28;20044;-77
2022/01/10 10:02:14;;;;;;;23.38;8.80;;;8.20;99.10;;;;;;5071901;28;20170;-77
2022/01/10 10:04:40;;;;;;;27.88;8.95;;;8.30;99.20;;;;;;5072474;28;20031;-79
2022/01/10 10:07:06;;;;;;;28.90;9.30;;;8.20;99.20;;;;;;5073703;28;20373;-80
2022/01/10 10:09:34;;;;;;;26.58;8.75;;;8.20;99.50;;;;;;5072609;28;20039;-76
2022/01/10 10:12:01;;;;;;;30.73;10.00;;;8.10;99.30;;;;;;5072941;28;20023;-76
2022/01/10 10:14:27;;;;;;;27.88;9.52;;;8.20;99.50;;;;;;5073423;28;20117;-75
2022/01/10 10:16:56;;;;;;;31.40;9.85;;;8.30;99.50;;;;;;5071959;28;20048;-73
2022/01/10 10:19:28;;;;;;;32.03;9.93;;;8.10;99.40;;;;;;5072230;28;20739;-71
2022/01/10 10:21:57;;;;;;;37.45;9.90;;;8.10;99.60;;;;;;5073114;28;20028;-72
2022/01/10 10:24:24;;;;;;;24.25;8.93;;;8.00;99.60;;;;;;5072220;28;20036;-72
2022/01/10 10:26:50;;;;;;;33.65;9.32;;;8.10;99.80;;;;;;5072894;28;20086;-73
2022/01/10 10:29:18;;;;;;;38.85;12.50;;;8.20;99.80;;;;;;5071597;28;20151;-76
2022/01/10 10:31:53;;;;;;;29.17;9.43;;;8.20;99.60;;;;;;5070923;28;20111;-75
2022/01/10 10:34:27;;;;;;;34.55;9.20;;;8.30;99.60;;;;;;5051722;28;20596;-80
2022/01/10 10:37:05;;;;;;;26.10;9.85;;;8.40;99.30;;;;;;5054234;28;20040;-77
2022/01/10 10:39:33;;;;;;;35.50;10.52;;;8.40;99.30;;;;;;5054634;28;20441;-76
2022/01/10 10:42:02;;;;;;;27.88;9.10;;;8.30;99.10;;;;;;5067712;28;20056;-76
2022/01/10 10:44:28;;;;;;;31.92;8.93;;;8.60;99.20;;;;;;5073073;28;20056;-77
2022/01/10 10:46:54;;;;;;;26.95;9.80;;;8.60;99.20;;;;;;5067662;28;20033;-76
2022/01/10 10:49:21;;;;;;;35.53;9.65;;;8.70;98.90;;;;;;5074033;28;20029;-75
2022/01/10 10:51:51;;;;;;;25.48;9.15;;;8.80;98.90;;;;;;5074183;28;20028;-77
2022/01/10 10:54:18;;;;;;;34.28;10.50;;;8.70;98.80;;;;;;5073564;28;20029;-76
2022/01/10 10:56:44;;;;;;;29.63;9.43;;;8.80;98.90;;;;;;5072030;28;20277;-76
2022/01/10 10:59:11;;;;;;;29.08;10.02;;;8.80;98.40;;;;;;5071730;28;20042;-75
2022/01/10 11:01:39;;;;;;;24.90;10.10;;;9.10;98.90;;;;;;5071467;28;20473;-77
2022/01/10 11:04:09;;;;;;;42.28;14.38;;;9.30;98.60;;;;;;5070581;28;20135;-73
2022/01/10 11:06:35;;;;;;;37.60;12.15;;;9.40;98.30;;;;;;5072145;28;20442;-75
2022/01/10 11:09:09;;;;;;;32.15;10.35;;;9.60;97.90;;;;;;5073093;28;20021;-75
2022/01/10 11:11:35;;;;;;;35.38;9.85;;;9.40;97.50;;;;;;5062357;28;20029;-72
2022/01/10 11:14:01;;;;;;;23.45;8.98;;;9.60;98.00;;;;;;5068005;28;20099;-71
2022/01/10 11:16:29;;;;;;;34.08;9.63;;;9.60;97.70;;;;;;5071502;28;20064;-72
2022/01/10 11:18:55;;;;;;;34.83;9.50;;;9.70;97.80;;;;;;5071962;28;20032;-72
2022/01/10 11:21:24;;;;;;;37.05;9.95;;;9.70;97.40;;;;;;5071275;28;20040;-71
2022/01/10 11:23:52;;;;;;;29.27;8.73;;;9.70;97.50;;;;;;5064287;28;20029;-74
2022/01/10 11:26:18;;;;;;;28.30;8.73;;;9.60;97.30;;;;;;5051623;28;20471;-73
2022/01/10 11:28:52;;;;;;;25.00;8.30;;;9.60;97.40;;;;;;5051541;28;20041;-72
2022/01/10 11:31:28;;;;;;;20.73;7.97;;;9.70;97.20;;;;;;5051588;28;20112;-74
2022/01/10 11:33:56;;;;;;;24.58;8.63;;;9.40;97.40;;;;;;5059690;28;20028;-69
2022/01/10 11:36:25;;;;;;;21.05;7.95;;;9.60;97.90;;;;;;5071544;28;20043;-70
2022/01/10 11:38:53;;;;;;;35.65;11.15;;;9.80;97.30;;;;;;5071463;28;20028;-69
2022/01/10 11:41:32;;;;;;;23.10;8.52;;;10.00;96.60;;;;;;5070704;28;20056;-70
2022/01/10 11:44:03;;;;;;;26.77;8.88;;;9.90;96.90;;;;;;5069946;28;20442;-69
2022/01/10 11:46:45;;;;;;;28.48;9.00;;;9.80;96.70;;;;;;5068791;28;20460;-69
2022/01/10 11:49:14;;;;;;;26.33;9.45;;;9.70;96.70;;;;;;5071205;28;20029;-70
2022/01/10 11:51:52;;;;;;;27.23;8.65;;;9.50;97.10;;;;;;5070041;28;20060;-69
2022/01/10 11:54:22;;;;;;;27.38;9.13;;;9.40;97.20;;;;;;5071613;28;20025;-72
2022/01/10 11:56:56;;;;;;;28.55;8.10;;;9.40;97.30;;;;;;5070165;28;20028;-71
2022/01/10 11:59:53;;;;;;;19.20;8.20;;;9.10;97.30;;;;;;5069516;28;20266;-72
2022/01/10 12:02:23;;;;;;;27.38;8.77;;;9.10;97.30;;;;;;5051719;28;20067;-73
2022/01/10 12:05:00;;;;;;;27.90;8.90;;;9.10;97.60;;;;;;5055913;28;20028;-74
2022/01/10 12:07:27;;;;;;;24.90;9.17;;;9.20;97.60;;;;;;5071790;28;20047;-74
2022/01/10 12:09:55;;;;;;;35.78;10.15;;;9.10;97.60;;;;;;5071307;28;20052;-73
2022/01/10 12:12:24;;;;;;;22.75;8.10;;;9.00;97.50;;;;;;5071334;28;20365;-74
2022/01/10 12:14:52;;;;;;;26.08;8.93;;;9.00;97.70;;;;;;5070759;28;20462;-72
2022/01/10 12:17:17;;;;;;;26.55;8.38;;;9.10;97.90;;;;;;5071182;28;20052;-74
2022/01/10 12:19:43;;;;;;;31.65;8.75;;;8.90;97.50;;;;;;5070681;28;20532;-74
2022/01/10 12:22:10;;;;;;;37.85;9.60;;;8.90;97.80;;;;;;5071074;28;20021;-74
2022/01/10 12:24:41;;;;;;;21.08;8.02;;;8.80;97.90;;;;;;5068039;28;20494;-74
2022/01/10 12:27:09;;;;;;;28.55;9.45;;;8.90;98.20;;;;;;5071039;28;20025;-74
2022/01/10 12:29:35;;;;;;;24.27;9.07;;;8.90;98.00;;;;;;5068906;28;20029;-74
2022/01/10 12:32:02;;;;;;;32.53;8.45;;;8.80;98.10;;;;;;5069656;28;20060;-73
2022/01/10 12:34:28;;;;;;;23.02;9.13;;;9.00;98.20;;;;;;5071102;28;20506;-74
2022/01/10 12:36:54;;;;;;;26.33;9.20;;;9.10;98.20;;;;;;5070056;28;20462;-73
2022/01/10 12:39:26;;;;;;;18.52;8.90;;;9.20;98.00;;;;;;5071169;28;20031;-73
2022/01/10 12:41:52;;;;;;;33.35;10.20;;;9.40;98.00;;;;;;5069863;28;20036;-74
2022/01/10 12:44:19;;;;;;;20.85;8.13;;;9.40;97.90;;;;;;5070735;28;20420;-72
2022/01/10 12:46:45;;;;;;;28.90;7.78;;;9.40;97.70;;;;;;5051631;28;20033;-74
2022/01/10 12:49:14;;;;;;;40.50;8.73;;;9.20;97.60;;;;;;5050692;28;20040;-75
2022/01/10 12:51:45;;;;;;;30.25;9.20;;;9.00;97.70;;;;;;5067220;28;20020;-75
2022/01/10 12:54:13;;;;;;;23.55;7.95;;;9.10;97.90;;;;;;5069524;28;20636;-75